createdAt,value
2017-09-17T00:00:43.611Z,6.30
2017-09-17T00:03:50.903Z,6.50
2017-09-17T00:06:56.120Z,6.60
2017-09-17T00:10:01.188Z,6.70
2017-09-17T00:13:06.794Z,6.70
2017-09-17T00:16:13.339Z,7.00
2017-09-17T00:19:18.272Z,7.00
2017-09-17T00:22:23.192Z,7.00
2017-09-17T00:25:28.679Z,7.20
2017-09-17T00:28:34.139Z,7.20
2017-09-17T00:31:40.223Z,7.20
2017-09-17T00:34:46.575Z,7.40
2017-09-17T00:37:51.632Z,7.50
2017-09-17T00:40:58.716Z,7.60
2017-09-17T00:44:04.557Z,7.70
2017-09-17T00:47:10.199Z,7.80
2017-09-17T00:50:15.296Z,7.80
2017-09-17T00:53:21.532Z,7.80
2017-09-17T00:56:27.910Z,7.80
2017-09-17T00:59:32.877Z,7.80
2017-09-17T01:02:50.874Z,7.80
2017-09-17T01:05:57.120Z,7.80
2017-09-17T01:09:01.951Z,7.70
2017-09-17T01:12:07.054Z,7.70
2017-09-17T01:15:12.211Z,7.70
2017-09-17T01:18:17.872Z,7.60
2017-09-17T01:21:25.439Z,7.60
2017-09-17T01:24:31.723Z,7.50
2017-09-17T01:27:36.539Z,7.50
2017-09-17T01:30:41.377Z,7.50
2017-09-17T01:33:47.024Z,7.40
2017-09-17T01:36:52.357Z,7.40
2017-09-17T01:39:57.173Z,7.50
2017-09-17T01:43:02.944Z,7.50
2017-09-17T01:46:10.027Z,7.50
2017-09-17T01:49:14.933Z,7.50
2017-09-17T01:52:20.012Z,7.50
2017-09-17T01:55:24.858Z,7.40
2017-09-17T01:58:32.564Z,7.40
2017-09-17T02:01:42.782Z,7.30
2017-09-17T02:04:52.229Z,7.10
2017-09-17T02:08:00.788Z,7.10
2017-09-17T02:11:08.706Z,7.00
2017-09-17T02:14:13.778Z,7.00
2017-09-17T02:17:18.694Z,6.90
2017-09-17T02:20:24.175Z,6.80
2017-09-17T02:23:30.923Z,6.70
2017-09-17T02:26:37.175Z,6.40
2017-09-17T02:29:42.567Z,6.40
2017-09-17T02:32:47.667Z,6.30
2017-09-17T02:35:52.638Z,6.30
2017-09-17T02:39:01.547Z,6.30
2017-09-17T02:42:06.562Z,6.30
2017-09-17T02:45:11.855Z,6.40
2017-09-17T02:48:17.536Z,6.20
2017-09-17T02:51:24.555Z,5.90
2017-09-17T02:54:29.663Z,5.70
2017-09-17T02:57:34.569Z,5.60
2017-09-17T03:00:40.116Z,5.60
2017-09-17T03:03:45.816Z,5.50
2017-09-17T03:06:53.044Z,5.50
2017-09-17T03:09:58.512Z,5.50
2017-09-17T03:13:03.551Z,5.50
2017-09-17T03:16:14.588Z,5.50
2017-09-17T03:19:21.541Z,5.40
2017-09-17T03:22:26.544Z,5.30
2017-09-17T03:25:31.487Z,5.10
2017-09-17T03:28:36.536Z,5.10
2017-09-17T03:31:44.631Z,5.00
2017-09-17T03:34:53.298Z,5.00
2017-09-17T03:38:00.481Z,5.00
2017-09-17T03:41:12.296Z,5.40
2017-09-17T03:44:21.204Z,5.40
2017-09-17T03:47:26.432Z,5.60
2017-09-17T03:50:32.609Z,6.00
2017-09-17T03:53:38.404Z,6.00
2017-09-17T03:56:44.008Z,6.20
2017-09-17T03:59:50.163Z,6.40
2017-09-17T04:02:56.004Z,6.40
2017-09-17T04:06:04.737Z,6.70
2017-09-17T04:09:10.084Z,6.60
2017-09-17T04:12:15.896Z,6.70
2017-09-17T04:15:20.825Z,6.80
2017-09-17T04:18:27.093Z,7.00
2017-09-17T04:21:32.768Z,6.90
2017-09-17T04:24:38.184Z,7.00
2017-09-17T04:27:43.364Z,7.10
2017-09-17T04:30:49.685Z,7.10
2017-09-17T04:33:54.632Z,7.20
2017-09-17T04:37:02.940Z,7.20
2017-09-17T04:40:09.120Z,7.30
2017-09-17T04:43:16.188Z,7.20
2017-09-17T04:46:21.848Z,7.30
2017-09-17T04:49:31.092Z,7.30
2017-09-17T04:52:36.304Z,7.40
2017-09-17T04:55:41.953Z,7.40
2017-09-17T04:58:47.171Z,7.40
2017-09-17T05:01:52.309Z,7.40
2017-09-17T05:04:57.512Z,7.40
2017-09-17T05:08:04.682Z,7.30
2017-09-17T05:11:10.083Z,7.40
2017-09-17T05:14:15.424Z,7.50
2017-09-17T05:17:21.074Z,7.50
2017-09-17T05:20:26.216Z,7.50
2017-09-17T05:23:30.983Z,7.50
2017-09-17T05:26:39.523Z,7.60
2017-09-17T05:29:45.475Z,7.60
2017-09-17T05:32:57.935Z,7.60
2017-09-17T05:36:03.396Z,7.70
2017-09-17T05:39:09.564Z,7.90
2017-09-17T05:42:15.428Z,7.90
2017-09-17T05:45:20.482Z,8.00
2017-09-17T05:48:26.312Z,8.10
2017-09-17T05:51:31.811Z,8.10
2017-09-17T05:54:37.420Z,8.10
2017-09-17T05:57:44.107Z,8.20
2017-09-17T06:00:51.359Z,8.20
2017-09-17T06:03:56.505Z,8.30
2017-09-17T06:07:01.611Z,8.40
2017-09-17T06:10:07.800Z,8.40
2017-09-17T06:13:17.572Z,8.50
2017-09-17T06:16:23.243Z,8.50
2017-09-17T06:19:29.295Z,8.50
2017-09-17T06:22:34.099Z,8.50
2017-09-17T06:25:39.205Z,8.50
2017-09-17T06:28:44.452Z,8.50
2017-09-17T06:31:49.559Z,8.50
2017-09-17T06:34:54.791Z,8.50
2017-09-17T06:38:00.536Z,8.60
2017-09-17T06:41:05.968Z,8.60
2017-09-17T06:44:14.913Z,8.80
2017-09-17T06:47:32.900Z,8.90
2017-09-17T06:50:38.287Z,8.90
2017-09-17T06:53:43.291Z,9.00
2017-09-17T06:56:48.645Z,9.10
2017-09-17T06:59:53.529Z,9.20
2017-09-17T07:02:58.504Z,9.30
2017-09-17T07:06:04.387Z,9.40
2017-09-17T07:09:10.704Z,9.60
2017-09-17T07:12:16.258Z,9.60
2017-09-17T07:15:21.994Z,9.80
2017-09-17T07:18:29.980Z,9.80
2017-09-17T07:21:44.632Z,10.00
2017-09-17T07:24:53.684Z,10.20
2017-09-17T07:27:59.237Z,10.20
2017-09-17T07:31:04.785Z,10.40
2017-09-17T07:34:10.436Z,10.60
2017-09-17T07:37:15.533Z,10.80
2017-09-17T07:40:21.248Z,11.10
2017-09-17T07:43:33.072Z,11.20
2017-09-17T07:46:38.450Z,11.20
2017-09-17T07:49:43.237Z,11.20
2017-09-17T07:52:48.846Z,11.30
2017-09-17T07:55:53.699Z,11.50
2017-09-17T07:58:59.244Z,11.60
2017-09-17T08:02:04.149Z,11.70
2017-09-17T08:05:22.002Z,12.00
2017-09-17T08:08:26.954Z,12.00
2017-09-17T08:11:31.840Z,11.90
2017-09-17T08:14:37.225Z,12.00
2017-09-17T08:17:42.467Z,12.00
2017-09-17T08:20:47.755Z,12.10
2017-09-17T08:23:53.932Z,12.20
2017-09-17T08:26:59.067Z,12.30
2017-09-17T08:30:04.892Z,12.50
2017-09-17T08:33:12.996Z,12.80
2017-09-17T08:36:18.583Z,12.80
2017-09-17T08:39:24.800Z,12.90
2017-09-17T08:42:30.122Z,13.00
2017-09-17T08:45:35.393Z,13.20
2017-09-17T08:48:40.306Z,13.20
2017-09-17T08:51:49.147Z,13.40
2017-09-17T08:54:55.888Z,13.60
2017-09-17T08:58:01.056Z,13.60
2017-09-17T09:01:06.351Z,13.80
2017-09-17T09:04:12.369Z,13.90
2017-09-17T09:07:17.620Z,14.10
2017-09-17T09:10:23.733Z,14.50
2017-09-17T09:13:28.831Z,14.50
2017-09-17T09:16:34.759Z,14.90
2017-09-17T09:19:44.543Z,15.00
2017-09-17T09:22:49.993Z,15.00
2017-09-17T09:25:55.552Z,15.20
2017-09-17T09:29:00.665Z,15.30
2017-09-17T09:32:05.923Z,15.20
2017-09-17T09:35:10.619Z,15.30
2017-09-17T09:38:15.577Z,15.50
2017-09-17T09:41:20.158Z,15.70
2017-09-17T09:44:28.647Z,16.00
2017-09-17T09:47:33.379Z,16.20
2017-09-17T09:50:38.945Z,16.40
2017-09-17T09:53:43.658Z,16.10
2017-09-17T09:56:49.164Z,15.90
2017-09-17T09:59:54.775Z,15.70
2017-09-17T10:02:59.900Z,15.70
2017-09-17T10:06:09.039Z,15.80
2017-09-17T10:09:26.380Z,15.90
2017-09-17T10:12:32.572Z,15.80
2017-09-17T10:15:44.191Z,15.70
2017-09-17T10:18:48.995Z,15.60
2017-09-17T10:21:55.189Z,15.20
2017-09-17T10:25:00.208Z,15.20
2017-09-17T10:28:04.857Z,15.10
2017-09-17T10:31:09.716Z,15.30
2017-09-17T10:34:15.833Z,15.30
2017-09-17T10:37:21.132Z,15.40
2017-09-17T10:40:26.500Z,15.50
2017-09-17T10:43:31.749Z,15.60
2017-09-17T10:46:36.728Z,15.70
2017-09-17T10:49:46.185Z,15.90
2017-09-17T10:52:51.836Z,16.10
2017-09-17T10:55:57.384Z,16.30
2017-09-17T10:59:03.243Z,16.50
2017-09-17T11:02:08.567Z,16.60
2017-09-17T11:05:13.416Z,16.50
2017-09-17T11:08:18.889Z,16.40
2017-09-17T11:11:25.052Z,16.50
2017-09-17T11:14:30.923Z,16.60
2017-09-17T11:17:38.908Z,16.60
2017-09-17T11:20:44.540Z,16.80
2017-09-17T11:23:50.004Z,17.00
2017-09-17T11:26:54.896Z,17.60
2017-09-17T11:30:00.633Z,18.00
2017-09-17T11:33:05.726Z,18.30
2017-09-17T11:36:10.463Z,18.60
2017-09-17T11:39:15.363Z,18.80
2017-09-17T11:42:21.148Z,19.10
2017-09-17T11:45:27.195Z,19.20
2017-09-17T11:48:35.992Z,19.20
2017-09-17T11:51:48.988Z,19.10
2017-09-17T11:54:54.132Z,19.00
2017-09-17T11:58:00.847Z,19.10
2017-09-17T12:01:06.468Z,19.10
2017-09-17T12:04:13.711Z,19.50
2017-09-17T12:07:19.279Z,19.30
2017-09-17T12:10:25.352Z,19.50
2017-09-17T12:13:30.755Z,19.50
2017-09-17T12:16:36.238Z,19.50
2017-09-17T12:19:42.092Z,19.80
2017-09-17T12:22:47.745Z,19.70
2017-09-17T12:25:52.695Z,20.10
2017-09-17T12:28:58.366Z,19.90
2017-09-17T12:32:10.289Z,19.60
2017-09-17T12:35:15.160Z,19.10
2017-09-17T12:38:25.285Z,18.80
2017-09-17T12:41:31.150Z,18.90
2017-09-17T12:44:36.575Z,18.90
2017-09-17T12:47:41.749Z,18.90
2017-09-17T12:50:47.943Z,18.70
2017-09-17T12:53:52.788Z,18.70
2017-09-17T12:56:58.131Z,18.50
2017-09-17T13:00:02.924Z,17.20
2017-09-17T13:03:08.847Z,15.60
2017-09-17T13:06:13.641Z,15.60
2017-09-17T13:09:19.257Z,15.10
2017-09-17T13:12:25.250Z,15.00
2017-09-17T13:15:30.164Z,15.00
2017-09-17T13:18:35.125Z,15.00
2017-09-17T13:21:41.019Z,15.40
2017-09-17T13:24:52.740Z,15.50
2017-09-17T13:27:58.188Z,15.80
2017-09-17T13:31:03.059Z,15.80
2017-09-17T13:34:09.569Z,16.10
2017-09-17T13:37:14.689Z,16.40
2017-09-17T13:40:20.530Z,16.20
2017-09-17T13:43:25.751Z,16.00
2017-09-17T13:46:31.168Z,15.90
2017-09-17T13:49:35.967Z,15.90
2017-09-17T13:52:41.088Z,15.70
2017-09-17T13:55:47.352Z,15.70
2017-09-17T13:58:52.533Z,15.70
2017-09-17T14:02:01.495Z,15.20
2017-09-17T14:05:20.793Z,14.60
2017-09-17T14:08:42.308Z,14.30
2017-09-17T14:11:47.868Z,14.30
2017-09-17T14:14:53.000Z,14.30
2017-09-17T14:17:58.178Z,14.50
2017-09-17T14:21:03.787Z,14.60
2017-09-17T14:24:10.133Z,14.70
2017-09-17T14:27:15.016Z,14.60
2017-09-17T14:30:21.144Z,14.50
2017-09-17T14:33:26.518Z,14.50
2017-09-17T14:36:32.723Z,14.60
2017-09-17T14:39:38.527Z,14.90
2017-09-17T14:42:44.000Z,15.20
2017-09-17T14:45:49.363Z,15.10
2017-09-17T14:48:54.900Z,15.40
2017-09-17T14:52:00.193Z,15.60
2017-09-17T14:55:06.035Z,15.90
2017-09-17T14:58:15.342Z,16.10
2017-09-17T15:01:20.260Z,16.10
2017-09-17T15:04:26.017Z,16.40
2017-09-17T15:07:31.540Z,16.40
2017-09-17T15:10:38.511Z,16.40
2017-09-17T15:13:44.133Z,16.30
2017-09-17T15:16:51.163Z,16.00
2017-09-17T15:19:56.456Z,16.00
2017-09-17T15:23:02.251Z,16.00
2017-09-17T15:26:07.924Z,15.90
2017-09-17T15:29:13.452Z,15.70
2017-09-17T15:32:18.816Z,15.60
2017-09-17T15:35:23.758Z,15.60
2017-09-17T15:38:29.376Z,15.50
2017-09-17T15:41:35.725Z,15.50
2017-09-17T15:44:44.985Z,15.60
2017-09-17T15:47:50.579Z,15.60
2017-09-17T15:50:56.114Z,15.50
2017-09-17T15:54:01.640Z,15.50
2017-09-17T15:57:07.875Z,15.50
2017-09-17T16:00:13.832Z,15.40
2017-09-17T16:03:20.404Z,15.40
2017-09-17T16:06:25.364Z,15.30
2017-09-17T16:09:30.436Z,15.30
2017-09-17T16:12:35.748Z,15.40
2017-09-17T16:15:41.462Z,15.40
2017-09-17T16:18:46.584Z,15.30
2017-09-17T16:21:52.356Z,15.30
2017-09-17T16:24:58.156Z,15.20
2017-09-17T16:28:04.124Z,15.00
2017-09-17T16:31:18.748Z,14.90
2017-09-17T16:34:25.104Z,14.90
2017-09-17T16:37:30.609Z,14.70
2017-09-17T16:40:36.051Z,14.70
2017-09-17T16:43:42.545Z,14.60
2017-09-17T16:46:50.431Z,14.60
2017-09-17T16:49:57.561Z,14.40
2017-09-17T16:53:03.375Z,14.20
2017-09-17T16:56:09.063Z,14.20
2017-09-17T16:59:14.245Z,14.20
2017-09-17T17:02:19.251Z,14.10
2017-09-17T17:05:24.220Z,14.10
2017-09-17T17:08:29.800Z,13.90
2017-09-17T17:11:34.792Z,13.90
2017-09-17T17:14:40.436Z,13.90
2017-09-17T17:17:46.624Z,13.60
2017-09-17T17:20:52.796Z,13.60
2017-09-17T17:23:59.016Z,13.40
2017-09-17T17:27:03.776Z,13.20
2017-09-17T17:30:09.192Z,13.00
2017-09-17T17:33:14.608Z,12.70
2017-09-17T17:36:19.704Z,12.60
2017-09-17T17:39:24.822Z,12.40
2017-09-17T17:42:31.260Z,12.30
2017-09-17T17:45:36.621Z,12.20
2017-09-17T17:48:43.440Z,12.00
2017-09-17T17:51:49.993Z,11.90
2017-09-17T17:54:55.768Z,11.60
2017-09-17T17:58:00.797Z,11.60
2017-09-17T18:01:09.921Z,11.60
2017-09-17T18:04:15.341Z,11.40
2017-09-17T18:07:20.434Z,11.30
2017-09-17T18:10:26.405Z,11.20
2017-09-17T18:13:31.841Z,11.20
2017-09-17T18:16:36.955Z,11.30
2017-09-17T18:19:43.235Z,11.30
2017-09-17T18:22:48.193Z,11.30
2017-09-17T18:25:53.396Z,11.20
2017-09-17T18:29:06.341Z,11.20
2017-09-17T18:32:12.980Z,11.20
2017-09-17T18:35:21.136Z,11.20
2017-09-17T18:38:26.080Z,11.20
2017-09-17T18:41:30.875Z,11.10
2017-09-17T18:44:37.510Z,11.00
2017-09-17T18:47:42.628Z,10.90
2017-09-17T18:50:53.625Z,10.70
2017-09-17T18:53:58.585Z,10.70
2017-09-17T18:57:05.797Z,10.60
2017-09-17T19:00:11.000Z,10.50
2017-09-17T19:03:16.622Z,10.50
2017-09-17T19:06:25.280Z,10.50
2017-09-17T19:09:33.618Z,10.40
2017-09-17T19:12:41.909Z,10.50
2017-09-17T19:15:47.543Z,10.50
2017-09-17T19:18:53.364Z,10.60
2017-09-17T19:21:58.449Z,10.60
2017-09-17T19:25:04.829Z,10.50
2017-09-17T19:28:11.356Z,10.50
2017-09-17T19:31:17.799Z,10.50
2017-09-17T19:34:23.015Z,10.50
2017-09-17T19:37:28.968Z,10.50
2017-09-17T19:40:41.109Z,10.20
2017-09-17T19:43:49.248Z,9.90
2017-09-17T19:46:56.184Z,9.40
2017-09-17T19:50:01.864Z,9.40
2017-09-17T19:53:07.148Z,9.10
2017-09-17T19:56:13.889Z,9.00
2017-09-17T19:59:19.019Z,9.00
2017-09-17T20:02:25.946Z,9.00
2017-09-17T20:05:31.721Z,8.90
2017-09-17T20:08:43.459Z,8.90
2017-09-17T20:11:48.363Z,8.80
2017-09-17T20:14:53.851Z,8.70
2017-09-17T20:17:59.413Z,8.60
2017-09-17T20:21:10.677Z,8.60
2017-09-17T20:24:15.832Z,8.50
2017-09-17T20:27:20.976Z,8.50
2017-09-17T20:30:32.741Z,8.50
2017-09-17T20:33:38.132Z,8.60
2017-09-17T20:36:50.785Z,8.60
2017-09-17T20:39:57.392Z,8.50
2017-09-17T20:43:05.915Z,8.40
2017-09-17T20:46:12.624Z,8.20
2017-09-17T20:49:17.717Z,8.20
2017-09-17T20:52:22.989Z,8.00
2017-09-17T20:55:30.481Z,8.10
2017-09-17T20:58:38.514Z,8.10
2017-09-17T21:01:43.325Z,8.10
2017-09-17T21:04:48.665Z,8.20
2017-09-17T21:07:54.168Z,8.30
2017-09-17T21:11:11.570Z,8.40
2017-09-17T21:14:16.956Z,8.50
2017-09-17T21:17:23.564Z,8.50
2017-09-17T21:20:28.620Z,8.60
2017-09-17T21:23:33.935Z,8.80
2017-09-17T21:26:38.817Z,8.90
2017-09-17T21:29:44.225Z,9.10
2017-09-17T21:32:51.144Z,9.20
2017-09-17T21:35:56.107Z,9.40
2017-09-17T21:39:01.813Z,9.60
2017-09-17T21:42:07.691Z,9.70
2017-09-17T21:45:14.172Z,9.60
2017-09-17T21:48:24.206Z,9.60
2017-09-17T21:51:33.679Z,9.60
2017-09-17T21:54:40.763Z,9.60
2017-09-17T21:57:45.896Z,9.60
2017-09-17T22:00:51.807Z,9.60
2017-09-17T22:03:57.037Z,9.60
2017-09-17T22:07:02.589Z,9.70
2017-09-17T22:10:15.792Z,9.70
2017-09-17T22:13:20.956Z,9.70
2017-09-17T22:16:26.315Z,9.70
2017-09-17T22:19:33.590Z,9.80
2017-09-17T22:22:45.467Z,9.80
2017-09-17T22:25:51.056Z,9.80
2017-09-17T22:28:57.258Z,9.90
2017-09-17T22:32:02.155Z,9.90
2017-09-17T22:35:07.483Z,10.00
2017-09-17T22:38:12.872Z,10.00
2017-09-17T22:41:18.888Z,10.00
2017-09-17T22:44:27.912Z,10.00
2017-09-17T22:47:33.062Z,10.00
2017-09-17T22:50:38.224Z,10.10
2017-09-17T22:53:44.268Z,10.00
2017-09-17T22:56:49.076Z,10.00
2017-09-17T22:59:54.703Z,10.00
2017-09-17T23:03:01.784Z,10.00
2017-09-17T23:06:07.115Z,10.00
2017-09-17T23:09:18.788Z,10.00
2017-09-17T23:12:24.964Z,10.00
2017-09-17T23:15:33.482Z,10.00
2017-09-17T23:18:38.307Z,10.00
2017-09-17T23:21:52.020Z,10.00
2017-09-17T23:24:58.279Z,9.90
2017-09-17T23:28:11.932Z,9.90
2017-09-17T23:31:17.184Z,9.90
2017-09-17T23:34:37.693Z,9.80
2017-09-17T23:37:42.722Z,9.90
2017-09-17T23:40:48.345Z,9.90
2017-09-17T23:43:54.374Z,9.80
2017-09-17T23:46:59.579Z,9.80
2017-09-17T23:50:05.162Z,9.70
2017-09-17T23:53:11.833Z,9.70
2017-09-17T23:56:30.756Z,9.70
2017-09-17T23:59:35.600Z,9.80
